Time,TemperatureF,DewpointF,PressureIn,WindDirection,WindDirectionDegrees,WindSpeedMPH,WindSpeedGustMPH,Humidity,HourlyPrecipIn,Conditions,Clouds,dailyrainin,SoftwareType,DateUTC
2013-05-04 00:01:00,49.8,36.1,30.35,SE,132,0.0,0.0,59,0.00,CLR,OVC,0.00,WeatherDisplay:10.37,2013-05-04 04:01:00,
2013-05-04 00:03:00,49.8,36.1,30.35,SE,132,0.0,0.0,59,0.00,CLR,OVC,0.00,WeatherDisplay:10.37,2013-05-04 04:03:00,
2013-05-04 00:08:00,49.6,35.9,30.35,SE,132,0.0,0.0,59,0.00,CLR,OVC,0.00,WeatherDisplay:10.37,2013-05-04 04:08:00,
2013-05-04 00:14:00,49.5,36.1,30.35,SE,132,0.0,0.0,60,0.00,CLR,OVC,0.00,WeatherDisplay:10.37,2013-05-04 04:14:00,
2013-05-04 00:19:00,49.3,35.5,30.35,SE,132,0.0,0.0,59,0.00,CLR,OVC,0.00,WeatherDisplay:10.37,2013-05-04 04:19:00,
2013-05-04 00:24:00,48.7,35.5,30.35,SE,132,0.0,0.0,60,0.00,CLR,OVC,0.00,WeatherDisplay:10.37,2013-05-04 04:24:00,
2013-05-04 00:29:00,48.4,35.1,30.35,SE,132,0.0,0.0,60,0.00,CLR,OVC,0.00,WeatherDisplay:10.37,2013-05-04 04:29:00,
2013-05-04 00:34:00,48.4,35.5,30.35,SE,132,0.0,0.0,61,0.00,CLR,OVC,0.00,WeatherDisplay:10.37,2013-05-04 04:34:00,
2013-05-04 00:39:00,48.2,35.4,30.35,SE,132,0.0,0.0,61,0.00,CLR,OVC,0.00,WeatherDisplay:10.37,2013-05-04 04:39:00,
2013-05-04 00:44:00,48.0,35.6,30.35,SE,132,0.0,0.0,62,0.00,CLR,OVC,0.00,WeatherDisplay:10.37,2013-05-04 04:44:00,
2013-05-04 00:49:00,47.7,35.3,30.35,SE,132,0.0,0.0,62,0.00,CLR,OVC,0.00,WeatherDisplay:10.37,2013-05-04 04:49:00,
2013-05-04 00:54:00,47.7,35.7,30.35,SE,132,0.0,0.0,63,0.00,CLR,OVC,0.00,WeatherDisplay:10.37,2013-05-04 04:54:00,
2013-05-04 00:59:00,47.7,35.7,30.35,SE,132,0.0,0.0,63,0.00,CLR,OVC,0.00,WeatherDisplay:10.37,2013-05-04 04:59:00,
2013-05-04 01:04:00,47.3,35.3,30.35,SE,132,0.0,0.0,63,0.00,SCT,OVC,0.00,WeatherDisplay:10.37,2013-05-04 05:04:00,
2013-05-04 01:09:00,47.3,35.7,30.35,SE,132,0.0,0.0,64,0.00,SCT,OVC,0.00,WeatherDisplay:10.37,2013-05-04 05:09:00,
2013-05-04 01:14:00,47.1,35.6,30.35,SE,132,0.0,0.0,64,0.00,SCT,OVC,0.00,WeatherDisplay:10.37,2013-05-04 05:14:00,
2013-05-04 01:19:00,46.9,35.8,30.35,SE,132,0.0,0.0,65,0.00,SCT,OVC,0.00,WeatherDisplay:10.37,2013-05-04 05:19:00,
2013-05-04 01:24:00,46.6,35.4,30.35,SE,132,0.0,0.0,65,0.00,SCT,OVC,0.00,WeatherDisplay:10.37,2013-05-04 05:24:00,
2013-05-04 01:29:00,46.6,35.8,30.35,SE,132,0.0,0.0,66,0.00,SCT,OVC,0.00,WeatherDisplay:10.37,2013-05-04 05:29:00,
2013-05-04 01:34:00,46.4,35.7,30.35,SE,132,0.0,0.0,66,0.00,SCT,OVC,0.00,WeatherDisplay:10.37,2013-05-04 05:34:00,
2013-05-04 01:39:00,46.4,36.0,30.32,SE,132,0.0,0.0,67,0.00,SCT,OVC,0.00,WeatherDisplay:10.37,2013-05-04 05:39:00,
2013-05-04 01:44:00,46.6,36.2,30.32,SE,132,0.0,0.0,67,0.00,SCT,OVC,0.00,WeatherDisplay:10.37,2013-05-04 05:44:00,
2013-05-04 01:49:00,46.6,36.2,30.32,SE,132,0.0,0.0,67,0.00,SCT,OVC,0.00,WeatherDisplay:10.37,2013-05-04 05:49:00,
2013-05-04 01:54:00,46.8,36.8,30.32,SE,132,0.0,0.0,68,0.00,SCT,OVC,0.00,WeatherDisplay:10.37,2013-05-04 05:54:00,
2013-05-04 01:59:00,46.8,36.8,30.32,SE,132,0.0,0.0,68,0.00,SCT,OVC,0.00,WeatherDisplay:10.37,2013-05-04 05:59:00,
2013-05-04 02:04:00,46.9,36.9,30.32,SE,132,0.0,0.0,68,0.00,SCT,OVC,0.00,WeatherDisplay:10.37,2013-05-04 06:04:00,
2013-05-04 02:09:00,47.1,37.1,30.32,SE,132,0.0,0.0,68,0.00,SCT,OVC,0.00,WeatherDisplay:10.37,2013-05-04 06:09:00,
2013-05-04 02:14:00,47.3,37.6,30.32,SE,132,0.0,0.0,69,0.00,SCT,OVC,0.00,WeatherDisplay:10.37,2013-05-04 06:14:00,
2013-05-04 02:19:00,47.3,37.6,30.32,SE,132,0.0,0.0,69,0.00,SCT,OVC,0.00,WeatherDisplay:10.37,2013-05-04 06:19:00,
2013-05-04 02:24:00,47.5,37.8,30.32,SE,132,0.0,0.0,69,0.00,SCT,OVC,0.00,WeatherDisplay:10.37,2013-05-04 06:24:00,
2013-05-04 02:29:00,47.7,38.4,30.32,SE,132,0.0,0.0,70,0.00,SCT,OVC,0.00,WeatherDisplay:10.37,2013-05-04 06:29:00,
2013-05-04 02:34:00,47.7,38.4,30.32,SE,132,0.0,0.0,70,0.00,SCT,OVC,0.00,WeatherDisplay:10.37,2013-05-04 06:34:00,
2013-05-04 02:39:00,47.7,38.4,30.32,SE,132,0.0,0.0,70,0.00,SCT,OVC,0.00,WeatherDisplay:10.37,2013-05-04 06:39:00,
2013-05-04 02:44:00,47.7,38.4,30.32,SE,132,0.0,0.0,70,0.00,SCT,OVC,0.00,WeatherDisplay:10.37,2013-05-04 06:44:00,
2013-05-04 02:49:00,47.8,38.5,30.32,SE,132,0.0,0.0,70,0.00,SCT,OVC,0.00,WeatherDisplay:10.37,2013-05-04 06:49:00,
2013-05-04 02:54:00,47.8,38.5,30.32,SE,128,0.0,0.0,70,0.00,SCT,OVC,0.00,WeatherDisplay:10.37,2013-05-04 06:54:00,
2013-05-04 02:59:00,47.8,38.9,30.32,SE,128,0.0,0.0,71,0.00,SCT,OVC,0.00,WeatherDisplay:10.37,2013-05-04 06:59:00,
2013-05-04 03:04:00,48.0,39.4,30.32,NNE,28,0.0,0.0,72,0.00,OVC,,0.00,WeatherDisplay:10.37,2013-05-04 07:04:00,
2013-05-04 03:09:00,48.0,39.8,30.32,NNE,18,0.0,0.0,73,0.00,OVC,,0.00,WeatherDisplay:10.37,2013-05-04 07:09:00,
2013-05-04 03:14:00,48.2,39.9,30.32,NNE,18,0.0,0.0,73,0.00,OVC,,0.00,WeatherDisplay:10.37,2013-05-04 07:14:00,
2013-05-04 03:19:00,48.2,39.9,30.32,NNE,18,0.0,0.0,73,0.00,OVC,,0.00,WeatherDisplay:10.37,2013-05-04 07:19:00,
2013-05-04 03:24:00,48.4,40.5,30.32,NNE,18,0.0,0.0,74,0.00,OVC,,0.00,WeatherDisplay:10.37,2013-05-04 07:24:00,
2013-05-04 03:29:00,48.6,40.6,30.32,NNE,18,0.0,0.0,74,0.00,OVC,,0.00,WeatherDisplay:10.37,2013-05-04 07:29:00,
2013-05-04 03:34:00,48.6,40.6,30.32,NNE,18,0.0,0.0,74,0.00,OVC,,0.00,WeatherDisplay:10.37,2013-05-04 07:34:00,
2013-05-04 03:39:00,48.6,40.6,30.32,NNE,18,0.0,0.0,74,0.00,OVC,,0.00,WeatherDisplay:10.37,2013-05-04 07:39:00,
2013-05-04 03:44:00,48.6,40.6,30.32,NNE,18,0.0,0.0,74,0.00,OVC,,0.00,WeatherDisplay:10.37,2013-05-04 07:44:00,
2013-05-04 03:49:00,48.7,40.8,30.30,NNE,18,0.0,0.0,74,0.00,OVC,,0.00,WeatherDisplay:10.37,2013-05-04 07:49:00,
2013-05-04 03:54:00,48.6,40.6,30.30,NNE,18,0.0,0.0,74,0.00,OVC,,0.00,WeatherDisplay:10.37,2013-05-04 07:54:00,
2013-05-04 03:55:00,48.7,40.8,30.30,NNE,18,0.0,0.0,74,0.00,OVC,,0.00,WeatherDisplay:10.37,2013-05-04 07:55:00,
2013-05-04 03:59:00,48.7,40.8,30.30,NNE,18,0.0,0.0,74,0.00,OVC,,0.00,WeatherDisplay:10.37,2013-05-04 07:59:00,
2013-05-04 04:04:00,48.7,40.8,30.30,NNE,18,0.0,0.0,74,0.00,OVC,,0.00,WeatherDisplay:10.37,2013-05-04 08:04:00,
2013-05-04 04:09:00,48.7,40.8,30.32,North,0,0.0,0.0,74,0.00,OVC,,0.00,WeatherDisplay:10.37,2013-05-04 08:09:00,
2013-05-04 04:14:00,48.7,40.8,30.32,North,0,0.0,0.0,74,0.00,OVC,,0.00,WeatherDisplay:10.37,2013-05-04 08:14:00,
2013-05-04 04:19:00,48.7,40.8,30.32,North,0,0.0,0.0,74,0.00,OVC,,0.00,WeatherDisplay:10.37,2013-05-04 08:19:00,
2013-05-04 04:24:00,48.7,40.8,30.32,NNE,21,0.0,0.0,74,0.00,OVC,,0.00,WeatherDisplay:10.37,2013-05-04 08:24:00,
2013-05-04 04:29:00,48.7,40.8,30.32,North,11,0.0,0.0,74,0.00,OVC,,0.00,WeatherDisplay:10.37,2013-05-04 08:29:00,
2013-05-04 04:34:00,48.6,40.6,30.32,North,6,0.0,0.0,74,0.00,OVC,,0.00,WeatherDisplay:10.37,2013-05-04 08:34:00,
2013-05-04 04:39:00,48.6,40.6,30.32,NNE,23,3.5,0.0,74,0.00,OVC,,0.00,WeatherDisplay:10.37,2013-05-04 08:39:00,
2013-05-04 04:44:00,48.4,40.1,30.32,NNE,12,2.3,0.0,73,0.00,OVC,,0.00,WeatherDisplay:10.37,2013-05-04 08:44:00,
2013-05-04 04:49:00,48.4,40.1,30.32,NE,47,4.6,4.6,73,0.00,OVC,,0.00,WeatherDisplay:10.37,2013-05-04 08:49:00,
2013-05-04 04:54:00,48.4,40.1,30.32,North,0,3.5,3.5,73,0.00,OVC,,0.00,WeatherDisplay:10.37,2013-05-04 08:54:00,
2013-05-04 04:59:00,48.6,40.3,30.32,NNW,343,0.0,0.0,73,0.00,OVC,,0.00,WeatherDisplay:10.37,2013-05-04 08:59:00,
2013-05-04 05:04:00,48.4,40.1,30.32,North,353,0.0,0.0,73,0.00,BKN,OVC,0.00,WeatherDisplay:10.37,2013-05-04 09:04:00,
2013-05-04 05:09:00,48.4,40.1,30.32,North,353,0.0,0.0,73,0.00,BKN,OVC,0.00,WeatherDisplay:10.37,2013-05-04 09:09:00,
2013-05-04 05:14:00,48.2,39.9,30.32,North,0,3.5,3.5,73,0.00,BKN,OVC,0.00,WeatherDisplay:10.37,2013-05-04 09:14:00,
2013-05-04 05:19:00,47.8,39.6,30.32,North,4,3.5,0.0,73,0.00,BKN,OVC,0.00,WeatherDisplay:10.37,2013-05-04 09:19:00,
2013-05-04 05:24:00,47.7,39.8,30.32,NNE,23,0.0,0.0,74,0.00,BKN,OVC,0.00,WeatherDisplay:10.37,2013-05-04 09:24:00,
2013-05-04 05:29:00,47.5,39.6,30.32,NNE,23,0.0,0.0,74,0.00,BKN,OVC,0.00,WeatherDisplay:10.37,2013-05-04 09:29:00,
2013-05-04 05:34:00,47.3,39.4,30.32,NNE,23,0.0,0.0,74,0.00,BKN,OVC,0.00,WeatherDisplay:10.37,2013-05-04 09:34:00,
2013-05-04 05:39:00,46.9,39.1,30.32,NNE,23,0.0,0.0,74,0.00,BKN,OVC,0.00,WeatherDisplay:10.37,2013-05-04 09:39:00,
2013-05-04 05:44:00,46.8,39.3,30.32,NNE,23,0.0,0.0,75,0.00,BKN,OVC,0.00,WeatherDisplay:10.37,2013-05-04 09:44:00,
2013-05-04 05:49:00,46.8,39.3,30.32,North,357,3.5,0.0,75,0.00,BKN,OVC,0.00,WeatherDisplay:10.37,2013-05-04 09:49:00,
2013-05-04 05:54:00,46.6,39.4,30.32,NNE,27,0.0,0.0,76,0.00,BKN,OVC,0.00,WeatherDisplay:10.37,2013-05-04 09:54:00,
2013-05-04 05:59:00,46.6,39.4,30.32,NNE,27,0.0,0.0,76,0.00,BKN,OVC,0.00,WeatherDisplay:10.37,2013-05-04 09:59:00,
2013-05-04 06:04:00,46.6,39.4,30.32,North,11,3.6,0.0,76,0.00,SCT,OVC,0.00,WeatherDisplay:10.37,2013-05-04 10:04:00,
2013-05-04 06:09:00,46.6,39.4,30.32,NNE,12,0.0,0.0,76,0.00,SCT,OVC,0.00,WeatherDisplay:10.37,2013-05-04 10:09:00,
2013-05-04 06:14:00,46.6,39.8,30.32,NNW,345,0.0,0.0,77,0.00,SCT,OVC,0.00,WeatherDisplay:10.37,2013-05-04 10:14:00,
2013-05-04 06:20:00,46.4,39.6,30.32,NNW,345,0.0,0.0,77,0.00,SCT,OVC,0.00,WeatherDisplay:10.37,2013-05-04 10:20:00,
2013-05-04 06:25:00,46.6,39.8,30.32,NNW,345,0.0,0.0,77,0.00,SCT,OVC,0.00,WeatherDisplay:10.37,2013-05-04 10:25:00,
2013-05-04 06:30:00,46.6,39.8,30.32,NNW,345,0.0,0.0,77,0.00,SCT,OVC,0.00,WeatherDisplay:10.37,2013-05-04 10:30:00,
2013-05-04 06:35:00,46.6,39.4,30.32,NNW,345,0.0,0.0,76,0.00,SCT,OVC,0.00,WeatherDisplay:10.37,2013-05-04 10:35:00,
2013-05-04 06:40:00,46.8,39.6,30.32,NNW,345,0.0,0.0,76,0.00,SCT,OVC,0.00,WeatherDisplay:10.37,2013-05-04 10:40:00,
2013-05-04 06:45:00,46.8,39.6,30.32,NNW,345,0.0,0.0,76,0.00,SCT,OVC,0.00,WeatherDisplay:10.37,2013-05-04 10:45:00,
2013-05-04 06:50:00,46.8,39.6,30.32,NNW,345,0.0,0.0,76,0.00,SCT,OVC,0.00,WeatherDisplay:10.37,2013-05-04 10:50:00,
2013-05-04 06:55:00,46.8,39.6,30.32,NNW,345,0.0,0.0,76,0.00,SCT,OVC,0.00,WeatherDisplay:10.37,2013-05-04 10:55:00,
2013-05-04 07:00:00,47.3,40.5,30.32,NE,34,2.3,0.0,77,0.00,SCT,OVC,0.00,WeatherDisplay:10.37,2013-05-04 11:00:00,
2013-05-04 07:05:00,47.7,40.8,30.32,NE,52,3.5,0.0,77,0.00,SCT,OVC,0.00,WeatherDisplay:10.37,2013-05-04 11:05:00,
2013-05-04 07:10:00,48.2,41.0,30.32,NNW,340,3.5,3.5,76,0.00,SCT,OVC,0.00,WeatherDisplay:10.37,2013-05-04 11:10:00,
2013-05-04 07:15:00,48.6,40.6,30.32,North,357,5.8,5.8,74,0.00,SCT,OVC,0.00,WeatherDisplay:10.37,2013-05-04 11:15:00,
2013-05-04 07:20:00,48.7,40.5,30.32,NNE,32,5.8,5.8,73,0.00,SCT,OVC,0.00,WeatherDisplay:10.37,2013-05-04 11:20:00,
2013-05-04 07:26:00,49.1,40.5,30.32,NNE,14,5.8,5.8,72,0.00,SCT,OVC,0.00,WeatherDisplay:10.37,2013-05-04 11:26:00,
2013-05-04 07:31:00,49.3,40.3,30.32,NNE,31,4.6,4.6,71,0.00,SCT,OVC,0.00,WeatherDisplay:10.37,2013-05-04 11:31:00,
2013-05-04 07:36:00,49.5,40.4,30.32,NNE,25,4.6,4.6,71,0.00,SCT,OVC,0.00,WeatherDisplay:10.37,2013-05-04 11:36:00,
2013-05-04 07:41:00,49.6,40.6,30.32,North,357,6.9,6.9,71,0.00,SCT,OVC,0.00,WeatherDisplay:10.37,2013-05-04 11:41:00,
2013-05-04 07:46:00,50.0,40.6,30.32,NE,41,5.8,5.8,70,0.00,SCT,OVC,0.00,WeatherDisplay:10.37,2013-05-04 11:46:00,
2013-05-04 07:51:00,50.2,40.4,30.32,NNE,19,6.2,6.2,69,0.00,SCT,OVC,0.00,WeatherDisplay:10.37,2013-05-04 11:51:00,
2013-05-04 07:56:00,50.2,40.0,30.32,NNW,333,6.9,0.0,68,0.00,SCT,OVC,0.00,WeatherDisplay:10.37,2013-05-04 11:56:00,
2013-05-04 08:01:00,50.4,40.2,30.32,NE,53,4.6,4.6,68,0.00,SCT,OVC,0.00,WeatherDisplay:10.37,2013-05-04 12:01:00,
2013-05-04 08:06:00,50.7,40.9,30.32,ENE,71,0.0,0.0,69,0.00,SCT,OVC,0.00,WeatherDisplay:10.37,2013-05-04 12:06:00,
2013-05-04 08:11:00,51.1,40.5,30.32,NNW,343,0.0,0.0,67,0.00,SCT,OVC,0.00,WeatherDisplay:10.37,2013-05-04 12:11:00,
2013-05-04 08:16:00,51.4,40.1,30.32,NE,52,6.9,6.9,65,0.00,SCT,OVC,0.00,WeatherDisplay:10.37,2013-05-04 12:16:00,
2013-05-04 08:22:00,51.8,38.8,30.32,NE,51,8.1,8.1,61,0.00,SCT,OVC,0.00,WeatherDisplay:10.37,2013-05-04 12:22:00,
2013-05-04 08:27:00,52.0,38.1,30.32,North,353,3.6,3.6,59,0.00,SCT,OVC,0.00,WeatherDisplay:10.37,2013-05-04 12:27:00,
2013-05-04 08:32:00,52.3,38.4,30.32,NNE,23,5.8,5.8,59,0.00,SCT,OVC,0.00,WeatherDisplay:10.37,2013-05-04 12:32:00,
2013-05-04 08:37:00,52.9,38.9,30.32,North,8,4.6,4.6,59,0.00,SCT,OVC,0.00,WeatherDisplay:10.37,2013-05-04 12:37:00,
2013-05-04 08:42:00,52.9,38.9,30.32,NNE,30,9.2,9.2,59,0.00,SCT,OVC,0.00,WeatherDisplay:10.37,2013-05-04 12:42:00,
2013-05-04 08:47:00,53.1,38.2,30.32,North,8,9.2,9.2,57,0.00,SCT,OVC,0.00,WeatherDisplay:10.37,2013-05-04 12:47:00,
2013-05-04 08:52:00,53.2,38.4,30.32,ENE,68,6.9,6.9,57,0.00,SCT,OVC,0.00,WeatherDisplay:10.37,2013-05-04 12:52:00,
2013-05-04 08:57:00,53.4,37.6,30.32,NNE,17,4.6,4.6,55,0.00,SCT,OVC,0.00,WeatherDisplay:10.37,2013-05-04 12:57:00,
2013-05-04 09:02:00,53.8,38.0,30.32,North,357,6.7,6.7,55,0.00,SCT,OVC,0.00,WeatherDisplay:10.37,2013-05-04 13:02:00,
2013-05-04 09:03:00,53.8,37.5,30.32,ESE,117,9.2,9.2,54,0.00,SCT,OVC,0.00,WeatherDisplay:10.37,2013-05-04 13:03:00,
2013-05-04 09:08:00,54.3,38.5,30.32,NNE,20,4.6,4.6,55,0.00,SCT,OVC,0.00,WeatherDisplay:10.37,2013-05-04 13:08:00,
2013-05-04 09:13:00,54.5,37.7,30.32,North,6,4.6,0.0,53,0.00,SCT,OVC,0.00,WeatherDisplay:10.37,2013-05-04 13:13:00,
2013-05-04 09:18:00,55.0,39.6,30.32,NNE,22,5.8,5.8,56,0.00,SCT,OVC,0.00,WeatherDisplay:10.37,2013-05-04 13:18:00,
2013-05-04 09:23:00,55.4,34.9,30.32,North,10,10.4,10.4,46,0.00,SCT,OVC,0.00,WeatherDisplay:10.37,2013-05-04 13:23:00,
2013-05-04 09:28:00,55.4,36.0,30.32,NW,306,10.0,10.0,48,0.00,SCT,OVC,0.00,WeatherDisplay:10.37,2013-05-04 13:28:00,
2013-05-04 09:33:00,55.6,36.2,30.32,ESE,114,3.5,3.5,48,0.00,SCT,OVC,0.00,WeatherDisplay:10.37,2013-05-04 13:33:00,
2013-05-04 09:38:00,55.8,36.4,30.32,NNE,17,5.8,5.8,48,0.00,SCT,OVC,0.00,WeatherDisplay:10.37,2013-05-04 13:38:00,
2013-05-04 09:43:00,56.1,36.7,30.32,NNW,338,4.6,4.6,48,0.00,SCT,OVC,0.00,WeatherDisplay:10.37,2013-05-04 13:43:00,
2013-05-04 09:49:00,56.3,35.2,30.32,NE,35,6.9,6.9,45,0.00,SCT,OVC,0.00,WeatherDisplay:10.37,2013-05-04 13:49:00,
2013-05-04 09:54:00,56.7,36.1,30.30,North,357,5.8,5.8,46,0.00,SCT,OVC,0.00,WeatherDisplay:10.37,2013-05-04 13:54:00,
2013-05-04 09:59:00,56.8,35.7,30.30,NE,34,4.6,4.6,45,0.00,SCT,OVC,0.00,WeatherDisplay:10.37,2013-05-04 13:59:00,
2013-05-04 10:04:00,56.8,33.4,30.30,North,9,5.8,5.8,41,0.00,SCT,OVC,0.00,WeatherDisplay:10.37,2013-05-04 14:04:00,
2013-05-04 10:09:00,57.0,34.1,30.32,NE,39,9.2,9.2,42,0.00,SCT,OVC,0.00,WeatherDisplay:10.37,2013-05-04 14:09:00,
2013-05-04 10:14:00,57.2,31.8,30.32,NE,53,11.5,11.5,38,0.00,SCT,OVC,0.00,WeatherDisplay:10.37,2013-05-04 14:14:00,
2013-05-04 10:19:00,57.2,32.4,30.32,ENE,59,5.8,5.8,39,0.00,SCT,OVC,0.00,WeatherDisplay:10.37,2013-05-04 14:19:00,
2013-05-04 10:24:00,57.6,34.6,30.30,East,84,4.6,0.0,42,0.00,SCT,OVC,0.00,WeatherDisplay:10.37,2013-05-04 14:24:00,
2013-05-04 10:29:00,57.9,33.1,30.30,North,0,10.4,10.4,39,0.00,SCT,OVC,0.00,WeatherDisplay:10.37,2013-05-04 14:29:00,
2013-05-04 10:34:00,58.1,35.1,30.30,ENE,57,0.0,0.0,42,0.00,SCT,OVC,0.00,WeatherDisplay:10.37,2013-05-04 14:34:00,
2013-05-04 10:39:00,58.6,33.7,30.30,NW,314,4.6,4.6,39,0.00,SCT,OVC,0.00,WeatherDisplay:10.37,2013-05-04 14:39:00,
2013-05-04 10:44:00,58.8,33.2,30.30,NNW,344,6.9,6.9,38,0.00,SCT,OVC,0.00,WeatherDisplay:10.37,2013-05-04 14:44:00,
2013-05-04 10:49:00,59.2,32.9,30.30,ENE,65,6.9,6.9,37,0.00,SCT,OVC,0.00,WeatherDisplay:10.37,2013-05-04 14:49:00,
2013-05-04 10:54:00,59.4,33.1,30.30,SE,140,6.9,6.9,37,0.00,SCT,OVC,0.00,WeatherDisplay:10.37,2013-05-04 14:54:00,
2013-05-04 10:59:00,59.7,32.7,30.30,NNE,28,9.2,9.2,36,0.00,SCT,OVC,0.00,WeatherDisplay:10.37,2013-05-04 14:59:00,
2013-05-04 11:04:00,60.1,33.0,30.30,South,185,6.9,6.9,36,0.00,SCT,OVC,0.00,WeatherDisplay:10.37,2013-05-04 15:04:00,
2013-05-04 11:09:00,60.4,32.6,30.30,ENE,60,10.4,10.4,35,0.00,SCT,OVC,0.00,WeatherDisplay:10.37,2013-05-04 15:09:00,
2013-05-04 11:14:00,60.3,31.8,30.30,ENE,60,6.9,6.9,34,0.00,SCT,OVC,0.00,WeatherDisplay:10.37,2013-05-04 15:14:00,
2013-05-04 11:19:00,60.3,31.0,30.30,NNE,31,6.7,6.7,33,0.00,SCT,OVC,0.00,WeatherDisplay:10.37,2013-05-04 15:19:00,
2013-05-04 11:24:00,60.4,31.9,30.30,East,87,5.8,5.8,34,0.00,SCT,OVC,0.00,WeatherDisplay:10.37,2013-05-04 15:24:00,
2013-05-04 11:29:00,60.4,31.2,30.30,NNE,18,6.9,6.9,33,0.00,SCT,OVC,0.00,WeatherDisplay:10.37,2013-05-04 15:29:00,
2013-05-04 11:34:00,61.0,33.8,30.30,South,172,5.8,0.0,36,0.00,SCT,OVC,0.00,WeatherDisplay:10.37,2013-05-04 15:34:00,
2013-05-04 11:39:00,62.1,34.8,30.26,ESE,107,4.6,4.6,36,0.00,SCT,OVC,0.00,WeatherDisplay:10.37,2013-05-04 15:39:00,
2013-05-04 11:44:00,62.6,35.3,30.26,SSW,194,4.6,4.6,36,0.00,SCT,OVC,0.00,WeatherDisplay:10.37,2013-05-04 15:44:00,
2013-05-04 11:49:00,62.6,33.8,30.26,South,184,6.9,6.9,34,0.00,SCT,OVC,0.00,WeatherDisplay:10.37,2013-05-04 15:49:00,
2013-05-04 11:54:00,62.6,34.5,30.30,ESE,114,4.6,4.6,35,0.00,SCT,OVC,0.00,WeatherDisplay:10.37,2013-05-04 15:54:00,
2013-05-04 11:59:00,63.0,36.9,30.30,East,85,9.2,9.2,38,0.00,SCT,OVC,0.00,WeatherDisplay:10.37,2013-05-04 15:59:00,
2013-05-04 12:04:00,63.1,35.0,30.30,East,96,9.3,9.3,35,0.00,SCT,OVC,0.00,WeatherDisplay:10.37,2013-05-04 16:04:00,
2013-05-04 12:09:00,63.0,35.6,30.30,SE,140,7.2,7.2,36,0.00,SCT,OVC,0.00,WeatherDisplay:10.37,2013-05-04 16:09:00,
2013-05-04 12:14:00,63.3,37.9,30.30,SSW,199,4.6,4.6,39,0.00,SCT,OVC,0.00,WeatherDisplay:10.37,2013-05-04 16:14:00,
2013-05-04 12:19:00,63.7,36.2,30.30,ENE,63,3.5,3.5,36,0.00,SCT,OVC,0.00,WeatherDisplay:10.37,2013-05-04 16:19:00,
2013-05-04 12:24:00,63.5,35.3,30.26,SW,227,6.9,6.9,35,0.00,SCT,OVC,0.00,WeatherDisplay:10.37,2013-05-04 16:24:00,
2013-05-04 12:29:00,63.5,36.0,30.26,NNE,27,6.9,6.9,36,0.00,SCT,OVC,0.00,WeatherDisplay:10.37,2013-05-04 16:29:00,
2013-05-04 12:35:00,64.0,37.9,30.26,NNW,338,4.6,4.6,38,0.00,SCT,OVC,0.00,WeatherDisplay:10.37,2013-05-04 16:35:00,
2013-05-04 12:40:00,64.0,34.3,30.26,North,1,4.6,4.6,33,0.00,SCT,OVC,0.00,WeatherDisplay:10.37,2013-05-04 16:40:00,
2013-05-04 12:45:00,64.0,36.5,30.26,WNW,300,3.5,0.0,36,0.00,SCT,OVC,0.00,WeatherDisplay:10.37,2013-05-04 16:45:00,
2013-05-04 12:50:00,63.9,34.2,30.26,East,83,9.2,9.2,33,0.00,SCT,OVC,0.00,WeatherDisplay:10.37,2013-05-04 16:50:00,
2013-05-04 12:55:00,64.0,36.5,30.26,SW,225,6.9,6.9,36,0.00,SCT,OVC,0.00,WeatherDisplay:10.37,2013-05-04 16:55:00,
2013-05-04 13:00:00,64.8,37.9,30.26,South,180,5.8,5.8,37,0.00,SCT,OVC,0.00,WeatherDisplay:10.37,2013-05-04 17:00:00,
2013-05-04 13:05:00,64.9,35.9,30.26,NE,44,9.2,9.2,34,0.00,SCT,OVC,0.00,WeatherDisplay:10.37,2013-05-04 17:05:00,
2013-05-04 13:10:00,64.4,36.1,30.26,SSE,148,4.6,4.6,35,0.00,SCT,OVC,0.00,WeatherDisplay:10.37,2013-05-04 17:10:00,
2013-05-04 13:15:00,65.1,37.5,30.26,ESE,123,5.7,5.7,36,0.00,SCT,OVC,0.00,WeatherDisplay:10.37,2013-05-04 17:15:00,
2013-05-04 13:20:00,65.5,35.6,30.26,SW,229,3.5,3.5,33,0.00,SCT,OVC,0.00,WeatherDisplay:10.37,2013-05-04 17:20:00,
2013-05-04 13:25:00,65.8,37.4,30.26,SSE,168,6.9,6.9,35,0.00,SCT,OVC,0.00,WeatherDisplay:10.37,2013-05-04 17:25:00,
2013-05-04 13:31:00,66.2,36.2,30.26,East,95,9.2,9.2,33,0.00,SCT,OVC,0.00,WeatherDisplay:10.37,2013-05-04 17:31:00,
2013-05-04 13:36:00,65.8,36.7,30.26,SE,146,10.4,10.4,34,0.00,SCT,OVC,0.00,WeatherDisplay:10.37,2013-05-04 17:36:00,
2013-05-04 13:41:00,65.5,35.6,30.26,NE,38,4.6,4.6,33,0.00,SCT,OVC,0.00,WeatherDisplay:10.37,2013-05-04 17:41:00,
2013-05-04 13:46:00,65.5,35.6,30.26,SE,136,9.2,9.2,33,0.00,SCT,OVC,0.00,WeatherDisplay:10.37,2013-05-04 17:46:00,
2013-05-04 13:51:00,66.2,36.2,30.26,SSE,156,6.9,6.9,33,0.00,SCT,OVC,0.00,WeatherDisplay:10.37,2013-05-04 17:51:00,
2013-05-04 13:56:00,66.6,38.0,30.26,South,176,9.3,0.0,35,0.00,SCT,OVC,0.00,WeatherDisplay:10.37,2013-05-04 17:56:00,
2013-05-04 14:01:00,66.9,38.4,30.26,NE,52,4.6,4.6,35,0.00,SCT,OVC,0.00,WeatherDisplay:10.37,2013-05-04 18:01:00,
2013-05-04 14:06:00,66.2,35.4,30.26,NNW,341,6.2,6.2,32,0.00,SCT,OVC,0.00,WeatherDisplay:10.37,2013-05-04 18:06:00,
2013-05-04 14:11:00,66.0,35.3,30.26,ESE,104,4.6,4.6,32,0.00,SCT,OVC,0.00,WeatherDisplay:10.37,2013-05-04 18:11:00,
2013-05-04 14:16:00,66.4,36.4,30.26,South,187,5.8,0.0,33,0.00,SCT,OVC,0.00,WeatherDisplay:10.37,2013-05-04 18:16:00,
2013-05-04 14:21:00,66.7,35.9,30.26,South,173,4.6,4.6,32,0.00,SCT,OVC,0.00,WeatherDisplay:10.37,2013-05-04 18:21:00,
2013-05-04 14:26:00,66.9,34.5,30.26,NNE,30,6.9,0.0,30,0.00,SCT,OVC,0.00,WeatherDisplay:10.37,2013-05-04 18:26:00,
2013-05-04 14:31:00,66.7,35.1,30.26,WNW,287,9.2,9.2,31,0.00,SCT,OVC,0.00,WeatherDisplay:10.37,2013-05-04 18:31:00,
2013-05-04 14:36:00,67.3,38.7,30.26,SSE,149,5.8,5.8,35,0.00,SCT,OVC,0.00,WeatherDisplay:10.37,2013-05-04 18:36:00,
2013-05-04 14:41:00,67.3,37.2,30.24,NNW,330,5.8,5.8,33,0.00,SCT,OVC,0.00,WeatherDisplay:10.37,2013-05-04 18:41:00,
2013-05-04 14:46:00,67.1,34.6,30.24,ENE,77,12.7,12.7,30,0.00,SCT,OVC,0.00,WeatherDisplay:10.37,2013-05-04 18:46:00,
2013-05-04 14:51:00,67.1,35.4,30.24,East,90,5.8,5.8,31,0.00,SCT,OVC,0.00,WeatherDisplay:10.37,2013-05-04 18:51:00,
2013-05-04 14:56:00,67.6,36.7,30.24,North,8,4.6,4.6,32,0.00,SCT,OVC,0.00,WeatherDisplay:10.37,2013-05-04 18:56:00,
2013-05-04 15:01:00,68.2,37.2,30.24,East,98,6.9,6.9,32,0.00,SCT,OVC,0.00,WeatherDisplay:10.37,2013-05-04 19:01:00,
2013-05-04 15:06:00,68.0,35.4,30.24,SSW,196,4.6,4.6,30,0.00,SCT,OVC,0.00,WeatherDisplay:10.37,2013-05-04 19:06:00,
2013-05-04 15:11:00,68.2,37.2,30.24,NE,41,4.6,4.6,32,0.00,SCT,OVC,0.00,WeatherDisplay:10.37,2013-05-04 19:11:00,
2013-05-04 15:16:00,67.8,36.1,30.24,North,0,6.9,6.9,31,0.00,SCT,OVC,0.00,WeatherDisplay:10.37,2013-05-04 19:16:00,
2013-05-04 15:21:00,68.0,36.2,30.24,ESE,108,5.7,5.7,31,0.00,SCT,OVC,0.00,WeatherDisplay:10.37,2013-05-04 19:21:00,
2013-05-04 15:26:00,67.8,38.4,30.24,South,185,4.6,0.0,34,0.00,SCT,OVC,0.00,WeatherDisplay:10.37,2013-05-04 19:26:00,
2013-05-04 15:31:00,68.0,36.2,30.24,NE,40,11.0,11.0,31,0.00,SCT,OVC,0.00,WeatherDisplay:10.37,2013-05-04 19:31:00,
2013-05-04 15:36:00,67.6,36.7,30.24,ENE,66,5.7,5.7,32,0.00,SCT,OVC,0.00,WeatherDisplay:10.37,2013-05-04 19:36:00,
2013-05-04 15:41:00,67.3,34.8,30.24,East,82,6.9,6.9,30,0.00,SCT,OVC,0.00,WeatherDisplay:10.37,2013-05-04 19:41:00,
2013-05-04 15:46:00,68.0,37.8,30.24,SSW,204,6.7,6.7,33,0.00,SCT,OVC,0.00,WeatherDisplay:10.37,2013-05-04 19:46:00,
2013-05-04 15:51:00,68.5,36.7,30.24,SSE,161,6.9,6.9,31,0.00,SCT,OVC,0.00,WeatherDisplay:10.37,2013-05-04 19:51:00,
2013-05-04 15:57:00,68.7,36.0,30.24,SSE,166,4.6,4.6,30,0.00,SCT,OVC,0.00,WeatherDisplay:10.37,2013-05-04 19:57:00,
2013-05-04 16:02:00,68.7,36.8,30.24,South,185,6.9,6.9,31,0.00,SCT,OVC,0.00,WeatherDisplay:10.37,2013-05-04 20:02:00,
2013-05-04 16:07:00,68.7,37.7,30.21,SE,131,6.9,6.9,32,0.00,SCT,OVC,0.00,WeatherDisplay:10.37,2013-05-04 20:07:00,
2013-05-04 16:12:00,68.7,36.0,30.21,NE,47,4.6,4.6,30,0.00,SCT,OVC,0.00,WeatherDisplay:10.37,2013-05-04 20:12:00,
2013-05-04 16:17:00,68.5,35.9,30.21,SSE,147,9.2,9.2,30,0.00,SCT,OVC,0.00,WeatherDisplay:10.37,2013-05-04 20:17:00,
2013-05-04 16:22:00,68.9,37.8,30.21,SE,131,6.9,6.9,32,0.00,SCT,OVC,0.00,WeatherDisplay:10.37,2013-05-04 20:22:00,
2013-05-04 16:27:00,69.1,37.2,30.21,SSE,150,9.2,9.2,31,0.00,SCT,OVC,0.00,WeatherDisplay:10.37,2013-05-04 20:27:00,
2013-05-04 16:32:00,69.1,38.0,30.21,SSW,195,4.6,4.6,32,0.00,SCT,OVC,0.00,WeatherDisplay:10.37,2013-05-04 20:32:00,
2013-05-04 16:37:00,69.4,36.6,30.21,South,170,8.1,8.1,30,0.00,SCT,OVC,0.00,WeatherDisplay:10.37,2013-05-04 20:37:00,
2013-05-04 16:42:00,69.6,37.6,30.21,SSE,153,4.6,4.6,31,0.00,SCT,OVC,0.00,WeatherDisplay:10.37,2013-05-04 20:42:00,
2013-05-04 16:47:00,69.8,36.9,30.21,SE,144,5.8,5.8,30,0.00,SCT,OVC,0.00,WeatherDisplay:10.37,2013-05-04 20:47:00,
2013-05-04 16:52:00,69.8,36.1,30.21,East,89,6.9,6.9,29,0.00,SCT,OVC,0.00,WeatherDisplay:10.37,2013-05-04 20:52:00,
2013-05-04 16:57:00,69.4,36.6,30.21,NW,307,6.9,6.9,30,0.00,SCT,OVC,0.00,WeatherDisplay:10.37,2013-05-04 20:57:00,
2013-05-04 17:02:00,69.1,36.3,30.21,South,186,3.5,3.5,30,0.00,SCT,OVC,0.00,WeatherDisplay:10.37,2013-05-04 21:02:00,
2013-05-04 17:07:00,69.3,36.5,30.21,East,89,4.6,0.0,30,0.00,SCT,OVC,0.00,WeatherDisplay:10.37,2013-05-04 21:07:00,
2013-05-04 17:12:00,69.1,36.3,30.21,SSE,149,3.5,3.5,30,0.00,SCT,OVC,0.00,WeatherDisplay:10.37,2013-05-04 21:12:00,
2013-05-04 17:17:00,68.9,34.4,30.21,ENE,76,9.2,9.2,28,0.00,SCT,OVC,0.00,WeatherDisplay:10.37,2013-05-04 21:17:00,
2013-05-04 17:22:00,68.5,34.1,30.21,NE,36,4.1,4.1,28,0.00,SCT,OVC,0.00,WeatherDisplay:10.37,2013-05-04 21:22:00,
2013-05-04 17:27:00,68.7,36.0,30.21,NNE,14,3.1,0.0,30,0.00,SCT,OVC,0.00,WeatherDisplay:10.37,2013-05-04 21:27:00,
2013-05-04 17:32:00,68.5,34.1,30.21,NE,42,9.2,9.2,28,0.00,SCT,OVC,0.00,WeatherDisplay:10.37,2013-05-04 21:32:00,
2013-05-04 17:37:00,68.5,35.0,30.21,West,260,3.5,3.5,29,0.00,SCT,OVC,0.00,WeatherDisplay:10.37,2013-05-04 21:37:00,
2013-05-04 17:42:00,69.1,35.5,30.21,ESE,121,6.2,6.2,29,0.00,SCT,OVC,0.00,WeatherDisplay:10.37,2013-05-04 21:42:00,
2013-05-04 17:47:00,69.1,35.5,30.21,South,169,9.2,9.2,29,0.00,SCT,OVC,0.00,WeatherDisplay:10.37,2013-05-04 21:47:00,
2013-05-04 17:52:00,69.1,36.3,30.21,SSE,158,6.9,6.9,30,0.00,SCT,OVC,0.00,WeatherDisplay:10.37,2013-05-04 21:52:00,
2013-05-04 17:57:00,69.3,35.6,30.21,South,169,6.9,6.9,29,0.00,SCT,OVC,0.00,WeatherDisplay:10.37,2013-05-04 21:57:00,
2013-05-04 18:02:00,69.3,35.6,30.21,SE,138,8.1,8.1,29,0.00,SCT,OVC,0.00,WeatherDisplay:10.37,2013-05-04 22:02:00,
2013-05-04 18:07:00,69.4,35.8,30.21,NE,48,4.6,4.6,29,0.00,SCT,OVC,0.00,WeatherDisplay:10.37,2013-05-04 22:07:00,
2013-05-04 18:12:00,69.3,35.6,30.21,ENE,58,4.6,4.6,29,0.00,SCT,OVC,0.00,WeatherDisplay:10.37,2013-05-04 22:12:00,
2013-05-04 18:17:00,69.3,35.6,30.21,NE,45,5.8,5.8,29,0.00,SCT,OVC,0.00,WeatherDisplay:10.37,2013-05-04 22:17:00,
2013-05-04 18:22:00,69.1,35.5,30.21,ESE,123,3.5,0.0,29,0.00,SCT,OVC,0.00,WeatherDisplay:10.37,2013-05-04 22:22:00,
2013-05-04 18:27:00,68.4,35.7,30.21,SSE,162,15.0,15.0,30,0.00,SCT,OVC,0.00,WeatherDisplay:10.37,2013-05-04 22:27:00,
2013-05-04 18:32:00,67.6,36.7,30.21,South,177,4.6,4.6,32,0.00,SCT,OVC,0.00,WeatherDisplay:10.37,2013-05-04 22:32:00,
2013-05-04 18:37:00,67.1,37.0,30.21,ESE,118,5.8,5.8,33,0.00,SCT,OVC,0.00,WeatherDisplay:10.37,2013-05-04 22:37:00,
2013-05-04 18:42:00,66.6,35.8,30.21,SSE,151,9.2,9.2,32,0.00,SCT,OVC,0.00,WeatherDisplay:10.37,2013-05-04 22:42:00,
2013-05-04 18:47:00,66.2,36.2,30.21,SE,143,6.9,6.9,33,0.00,SCT,OVC,0.00,WeatherDisplay:10.37,2013-05-04 22:47:00,
2013-05-04 18:52:00,65.8,37.4,30.21,South,182,5.8,5.8,35,0.00,SCT,OVC,0.00,WeatherDisplay:10.37,2013-05-04 22:52:00,
2013-05-04 18:57:00,65.5,37.1,30.21,WNW,285,5.8,5.8,35,0.00,SCT,OVC,0.00,WeatherDisplay:10.37,2013-05-04 22:57:00,
2013-05-04 19:02:00,65.1,36.8,30.21,SSE,154,4.6,4.6,35,0.00,SCT,OVC,0.00,WeatherDisplay:10.37,2013-05-04 23:02:00,
2013-05-04 19:07:00,64.8,36.5,30.21,SSE,157,6.9,6.9,35,0.00,SCT,OVC,0.00,WeatherDisplay:10.37,2013-05-04 23:07:00,
2013-05-04 19:12:00,64.6,36.3,30.21,South,169,5.8,5.8,35,0.00,SCT,OVC,0.00,WeatherDisplay:10.37,2013-05-04 23:12:00,
2013-05-04 19:17:00,64.2,36.7,30.21,SSE,147,8.2,8.2,36,0.00,SCT,OVC,0.00,WeatherDisplay:10.37,2013-05-04 23:17:00,
2013-05-04 19:18:00,64.0,36.5,30.21,SE,144,8.1,8.1,36,0.00,SCT,OVC,0.00,WeatherDisplay:10.37,2013-05-04 23:18:00,
2013-05-04 19:22:00,64.0,36.5,30.21,SE,144,8.1,8.1,36,0.00,SCT,OVC,0.00,WeatherDisplay:10.37,2013-05-04 23:22:00,
2013-05-04 19:27:00,64.0,36.5,30.21,SE,144,8.1,8.1,36,0.00,SCT,OVC,0.00,WeatherDisplay:10.37,2013-05-04 23:27:00,
2013-05-04 19:39:00,62.6,35.3,30.21,SSW,208,8.1,8.1,36,0.00,SCT,OVC,0.00,WeatherDisplay:10.37,2013-05-04 23:39:00,
2013-05-04 19:44:00,62.6,35.3,30.21,SSW,212,8.1,8.1,36,0.00,SCT,OVC,0.00,WeatherDisplay:10.37,2013-05-04 23:44:00,
2013-05-04 19:49:00,61.9,35.3,30.21,SSW,213,4.6,4.6,37,0.00,SCT,OVC,0.00,WeatherDisplay:10.37,2013-05-04 23:49:00,
2013-05-04 19:54:00,61.7,35.1,30.21,SSE,150,4.6,4.6,37,0.00,SCT,OVC,0.00,WeatherDisplay:10.37,2013-05-04 23:54:00,
2013-05-04 19:59:00,61.3,35.5,30.21,ESE,111,4.6,4.6,38,0.00,SCT,OVC,0.00,WeatherDisplay:10.37,2013-05-04 23:59:00,
2013-05-04 20:04:00,61.0,35.2,30.21,SE,127,4.6,4.6,38,0.00,SCT,OVC,0.00,WeatherDisplay:10.37,2013-05-05 00:04:00,
2013-05-04 20:09:00,60.6,34.9,30.21,SSE,151,4.6,4.6,38,0.00,SCT,OVC,0.00,WeatherDisplay:10.37,2013-05-05 00:09:00,
2013-05-04 20:14:00,60.4,34.7,30.21,SE,145,4.6,4.6,38,0.00,SCT,OVC,0.00,WeatherDisplay:10.37,2013-05-05 00:14:00,
2013-05-04 20:19:00,60.4,34.7,30.21,SE,133,2.3,0.0,38,0.00,SCT,OVC,0.00,WeatherDisplay:10.37,2013-05-05 00:19:00,
2013-05-04 20:24:00,60.1,34.4,30.21,SE,144,4.6,4.6,38,0.00,SCT,OVC,0.00,WeatherDisplay:10.37,2013-05-05 00:24:00,
2013-05-04 20:29:00,59.9,34.2,30.21,South,172,3.5,3.5,38,0.00,SCT,OVC,0.00,WeatherDisplay:10.37,2013-05-05 00:29:00,
2013-05-04 20:34:00,59.7,34.7,30.21,SE,129,0.0,0.0,39,0.00,SCT,OVC,0.00,WeatherDisplay:10.37,2013-05-05 00:34:00,
2013-05-04 20:39:00,59.5,34.5,30.21,SSE,159,3.5,3.5,39,0.00,SCT,OVC,0.00,WeatherDisplay:10.37,2013-05-05 00:39:00,
2013-05-04 20:44:00,59.4,34.4,30.21,SE,143,0.0,0.0,39,0.00,SCT,OVC,0.00,WeatherDisplay:10.37,2013-05-05 00:44:00,
2013-05-04 20:49:00,59.2,34.2,30.21,SE,142,0.0,0.0,39,0.00,SCT,OVC,0.00,WeatherDisplay:10.37,2013-05-05 00:49:00,
2013-05-04 20:54:00,59.0,34.1,30.24,SE,142,0.0,0.0,39,0.00,SCT,OVC,0.00,WeatherDisplay:10.37,2013-05-05 00:54:00,
2013-05-04 20:59:00,58.8,34.5,30.24,SE,142,0.0,0.0,40,0.00,SCT,OVC,0.00,WeatherDisplay:10.37,2013-05-05 00:59:00,
2013-05-04 21:04:00,58.6,35.0,30.24,SE,142,0.0,0.0,41,0.00,SCT,OVC,0.00,WeatherDisplay:10.37,2013-05-05 01:04:00,
2013-05-04 21:09:00,58.3,34.7,30.24,SE,142,0.0,0.0,41,0.00,SCT,OVC,0.00,WeatherDisplay:10.37,2013-05-05 01:09:00,
2013-05-04 21:14:00,58.1,34.5,30.24,SE,142,0.0,0.0,41,0.00,SCT,OVC,0.00,WeatherDisplay:10.37,2013-05-05 01:14:00,
2013-05-04 21:19:00,57.9,34.9,30.24,SE,142,0.0,0.0,42,0.00,SCT,OVC,0.00,WeatherDisplay:10.37,2013-05-05 01:19:00,
2013-05-04 21:24:00,57.7,34.8,30.24,SSE,153,0.0,0.0,42,0.00,SCT,OVC,0.00,WeatherDisplay:10.37,2013-05-05 01:24:00,
2013-05-04 21:29:00,57.6,34.6,30.24,SSE,155,4.6,0.0,42,0.00,SCT,OVC,0.00,WeatherDisplay:10.37,2013-05-05 01:29:00,
2013-05-04 21:34:00,57.2,34.3,30.24,SSE,154,2.6,0.0,42,0.00,SCT,OVC,0.00,WeatherDisplay:10.37,2013-05-05 01:34:00,
2013-05-04 21:39:00,57.2,34.3,30.24,SE,140,3.5,0.0,42,0.00,SCT,OVC,0.00,WeatherDisplay:10.37,2013-05-05 01:39:00,
2013-05-04 21:44:00,57.2,33.7,30.24,SSE,148,3.6,0.0,41,0.00,SCT,OVC,0.00,WeatherDisplay:10.37,2013-05-05 01:44:00,
2013-05-04 21:49:00,57.0,34.1,30.24,SE,141,3.5,0.0,42,0.00,SCT,OVC,0.00,WeatherDisplay:10.37,2013-05-05 01:49:00,
2013-05-04 21:54:00,56.8,34.0,30.24,SE,141,0.0,0.0,42,0.00,SCT,OVC,0.00,WeatherDisplay:10.37,2013-05-05 01:54:00,
2013-05-04 21:59:00,56.8,34.0,30.24,South,175,5.8,5.8,42,0.00,SCT,OVC,0.00,WeatherDisplay:10.37,2013-05-05 01:59:00,
2013-05-04 22:04:00,56.7,34.4,30.24,SE,135,9.2,9.2,43,0.00,SCT,OVC,0.00,WeatherDisplay:10.37,2013-05-05 02:04:00,
2013-05-04 22:09:00,56.5,34.8,30.24,SE,140,4.6,4.6,44,0.00,SCT,OVC,0.00,WeatherDisplay:10.37,2013-05-05 02:09:00,
2013-05-04 22:14:00,56.3,35.2,30.24,SSE,160,5.8,5.8,45,0.00,SCT,OVC,0.00,WeatherDisplay:10.37,2013-05-05 02:14:00,
2013-05-04 22:19:00,56.3,35.2,30.24,SE,130,4.6,4.6,45,0.00,SCT,OVC,0.00,WeatherDisplay:10.37,2013-05-05 02:19:00,
2013-05-04 22:24:00,56.1,36.1,30.26,SE,145,6.2,6.2,47,0.00,SCT,OVC,0.00,WeatherDisplay:10.37,2013-05-05 02:24:00,
2013-05-04 22:29:00,55.8,35.8,30.26,SE,141,4.6,4.6,47,0.00,SCT,OVC,0.00,WeatherDisplay:10.37,2013-05-05 02:29:00,
2013-05-04 22:34:00,55.6,35.7,30.26,SE,145,4.1,4.1,47,0.00,SCT,OVC,0.00,WeatherDisplay:10.37,2013-05-05 02:34:00,
2013-05-04 22:39:00,55.2,35.9,30.26,SE,144,4.6,4.6,48,0.00,SCT,OVC,0.00,WeatherDisplay:10.37,2013-05-05 02:39:00,
2013-05-04 22:44:00,55.0,36.2,30.26,SE,141,4.6,4.6,49,0.00,SCT,OVC,0.00,WeatherDisplay:10.37,2013-05-05 02:44:00,
2013-05-04 22:49:00,54.7,35.9,30.26,SSE,153,3.5,3.5,49,0.00,SCT,OVC,0.00,WeatherDisplay:10.37,2013-05-05 02:49:00,
2013-05-04 22:54:00,54.5,35.7,30.26,ESE,114,3.5,0.0,49,0.00,SCT,OVC,0.00,WeatherDisplay:10.37,2013-05-05 02:54:00,
2013-05-04 22:59:00,54.5,35.7,30.26,SSE,156,3.5,3.5,49,0.00,SCT,OVC,0.00,WeatherDisplay:10.37,2013-05-05 02:59:00,
2013-05-04 23:04:00,54.3,35.5,30.26,SSE,167,5.8,5.8,49,0.00,SCT,OVC,0.00,WeatherDisplay:10.37,2013-05-05 03:04:00,
2013-05-04 23:09:00,54.1,35.4,30.26,SE,145,3.5,0.0,49,0.00,SCT,OVC,0.00,WeatherDisplay:10.37,2013-05-05 03:09:00,
2013-05-04 23:14:00,54.0,35.2,30.26,SE,145,3.5,0.0,49,0.00,SCT,OVC,0.00,WeatherDisplay:10.37,2013-05-05 03:14:00,
2013-05-04 23:19:00,53.8,35.1,30.26,SSE,156,0.0,0.0,49,0.00,SCT,OVC,0.00,WeatherDisplay:10.37,2013-05-05 03:19:00,
2013-05-04 23:24:00,53.6,34.9,30.26,SSE,150,0.0,0.0,49,0.00,SCT,OVC,0.00,WeatherDisplay:10.37,2013-05-05 03:24:00,
2013-05-04 23:29:00,53.4,35.2,30.26,SE,141,0.0,0.0,50,0.00,SCT,OVC,0.00,WeatherDisplay:10.37,2013-05-05 03:29:00,
2013-05-04 23:34:00,53.1,35.4,30.26,SE,141,0.0,0.0,51,0.00,SCT,OVC,0.00,WeatherDisplay:10.37,2013-05-05 03:34:00,
2013-05-04 23:39:00,52.9,35.2,30.26,SE,141,0.0,0.0,51,0.00,SCT,OVC,0.00,WeatherDisplay:10.37,2013-05-05 03:39:00,
2013-05-04 23:44:00,52.7,35.1,30.26,SE,141,0.0,0.0,51,0.00,SCT,OVC,0.00,WeatherDisplay:10.37,2013-05-05 03:44:00,
2013-05-04 23:49:00,52.3,34.7,30.26,SE,141,0.0,0.0,51,0.00,SCT,OVC,0.00,WeatherDisplay:10.37,2013-05-05 03:49:00,
2013-05-04 23:54:00,52.0,34.9,30.26,SE,141,0.0,0.0,52,0.00,SCT,OVC,0.00,WeatherDisplay:10.37,2013-05-05 03:54:00,
2013-05-04 23:59:00,51.6,35.0,30.26,SE,141,0.0,0.0,53,0.00,SCT,OVC,0.00,WeatherDisplay:10.37,2013-05-05 03:59:00,